Time;durP1;ratioP1;P1;durP2;ratioP2;P2;SDS_P1;SDS_P2;PMS_P1;PMS_P2;Temp;Humidity;BMP_temperature;BMP_pressure;BME280_temperature;BME280_humidity;BME280_pressure;Samples;Min_cycle;Max_cycle;Signal;HPM_P1;HPM_P2
2022/09/10 00:03:22;;;;;;;2.05;0.73;;;;;;;;;;10483450;28;20098;-78
2022/09/10 00:08:29;;;;;;;2.35;0.43;;;;;;;;;;10469860;28;20048;-77
2022/09/10 00:13:51;;;;;;;0.85;0.63;;;;;;;;;;10492482;28;20036;-77
2022/09/10 00:19:00;;;;;;;1.88;0.70;;;;;;;;;;10493965;28;20393;-76
2022/09/10 00:24:06;;;;;;;0.43;0.30;;;;;;;;;;10493396;28;20131;-78
2022/09/10 00:29:19;;;;;;;;;;;;;;;;;;10477109;28;20470;-78
2022/09/10 00:34:40;;;;;;;0.93;0.25;;;;;;;;;;10492386;28;19931;-79
2022/09/10 00:39:56;;;;;;;0.30;0.30;;;;;;;;;;10489797;28;20107;-78
2022/09/10 00:45:30;;;;;;;0.70;0.35;;;;;;;;;;10485549;28;20045;-79
2022/09/10 00:50:46;;;;;;;2.00;0.70;;;;;;;;;;10473786;28;20146;-78
2022/09/10 00:56:06;;;;;;;0.77;0.57;;;;;;;;;;10471394;28;20078;-78
2022/09/10 01:01:23;;;;;;;1.08;0.65;;;;;;;;;;10487895;28;20048;-77
2022/09/10 01:06:31;;;;;;;1.35;0.28;;;;;;;;;;10462254;28;20044;-78
2022/09/10 01:11:49;;;;;;;0.40;0.38;;;;;;;;;;10457544;28;20048;-78
2022/09/10 01:17:05;;;;;;;1.15;0.57;;;;;;;;;;10486385;28;20119;-78
2022/09/10 01:22:25;;;;;;;0.82;0.40;;;;;;;;;;10470353;28;20064;-79
2022/09/10 01:27:51;;;;;;;0.82;0.60;;;;;;;;;;10476698;28;20043;-79
2022/09/10 01:33:04;;;;;;;0.95;0.50;;;;;;;;;;10476796;28;20395;-78
2022/09/10 01:38:10;;;;;;;2.05;0.60;;;;;;;;;;10486757;28;20066;-78
2022/09/10 01:43:24;;;;;;;0.63;0.52;;;;;;;;;;10481219;28;20462;-77
2022/09/10 01:48:44;;;;;;;1.27;0.40;;;;;;;;;;10468548;28;20033;-78
2022/09/10 01:53:59;;;;;;;1.50;0.55;;;;;;;;;;10470372;28;20052;-77
2022/09/10 01:59:24;;;;;;;1.75;0.60;;;;;;;;;;10488262;28;20124;-77
2022/09/10 02:04:38;;;;;;;2.88;0.60;;;;;;;;;;10475889;28;20057;-78
2022/09/10 02:09:53;;;;;;;2.35;0.77;;;;;;;;;;10469536;28;20045;-78
2022/09/10 02:15:01;;;;;;;1.50;0.40;;;;;;;;;;10489685;28;20055;-77
2022/09/10 02:20:12;;;;;;;0.98;0.47;;;;;;;;;;10467236;28;20040;-78
2022/09/10 02:25:20;;;;;;;0.40;0.40;;;;;;;;;;10484414;28;20040;-77
2022/09/10 02:30:28;;;;;;;2.05;0.52;;;;;;;;;;10464021;28;20083;-78
2022/09/10 02:35:42;;;;;;;2.83;0.82;;;;;;;;;;10484223;28;20147;-78
2022/09/10 02:41:01;;;;;;;1.90;0.80;;;;;;;;;;10479817;28;20036;-77
2022/09/10 02:46:06;;;;;;;1.75;0.60;;;;;;;;;;10451088;28;20477;-77
2022/09/10 02:51:23;;;;;;;1.17;0.60;;;;;;;;;;10488506;28;20060;-78
2022/09/10 02:56:30;;;;;;;1.70;0.70;;;;;;;;;;10465435;28;20086;-78
2022/09/10 03:01:38;;;;;;;1.80;0.47;;;;;;;;;;10485653;28;20044;-77
2022/09/10 03:06:44;;;;;;;0.90;0.80;;;;;;;;;;10469150;28;20041;-77
2022/09/10 03:11:54;;;;;;;0.60;0.38;;;;;;;;;;10488527;28;20497;-78
2022/09/10 03:17:11;;;;;;;1.45;0.77;;;;;;;;;;10489315;28;20119;-77
2022/09/10 03:22:30;;;;;;;2.50;0.80;;;;;;;;;;10496896;28;20105;-77
2022/09/10 03:27:39;;;;;;;1.05;0.85;;;;;;;;;;10487614;28;20040;-78
2022/09/10 03:32:49;;;;;;;0.50;0.50;;;;;;;;;;10466111;28;20048;-76
2022/09/10 03:38:00;;;;;;;0.50;0.50;;;;;;;;;;10473129;28;20474;-77
2022/09/10 03:43:11;;;;;;;1.93;0.47;;;;;;;;;;10493852;28;20068;-77
2022/09/10 03:48:20;;;;;;;1.83;0.55;;;;;;;;;;10497273;28;20105;-77
2022/09/10 03:53:29;;;;;;;1.25;0.60;;;;;;;;;;10480069;28;20045;-77
2022/09/10 03:58:34;;;;;;;1.38;0.30;;;;;;;;;;10489740;28;20098;-77
2022/09/10 04:03:40;;;;;;;;;;;;;;;;;;10460451;28;20528;-78
2022/09/10 04:08:56;;;;;;;0.43;0.43;;;;;;;;;;10478945;28;19932;-77
2022/09/10 04:14:02;;;;;;;0.60;0.50;;;;;;;;;;10495452;28;20044;-76
2022/09/10 04:19:08;;;;;;;2.67;0.60;;;;;;;;;;10478672;28;20436;-77
2022/09/10 04:24:18;;;;;;;0.30;0.30;;;;;;;;;;10495156;28;20036;-77
2022/09/10 04:29:22;;;;;;;1.33;0.75;;;;;;;;;;10503195;28;20617;-76
2022/09/10 04:34:25;;;;;;;;;;;;;;;;;;10488459;28;20489;-77
2022/09/10 04:39:31;;;;;;;0.75;0.40;;;;;;;;;;10500746;28;19984;-77
2022/09/10 04:44:36;;;;;;;1.63;0.40;;;;;;;;;;10481566;28;20032;-77
2022/09/10 04:49:46;;;;;;;1.05;0.50;;;;;;;;;;10487149;28;20029;-78
2022/09/10 04:54:51;;;;;;;0.90;0.50;;;;;;;;;;10488091;28;20045;-77
2022/09/10 04:59:58;;;;;;;0.90;0.32;;;;;;;;;;10477392;28;20032;-77
2022/09/10 05:05:03;;;;;;;0.17;0.15;;;;;;;;;;10457751;28;20136;-77
2022/09/10 05:10:12;;;;;;;0.35;0.35;;;;;;;;;;10484141;28;20048;-78
2022/09/10 05:15:16;;;;;;;0.50;0.50;;;;;;;;;;10487493;28;20477;-77
2022/09/10 05:20:22;;;;;;;0.50;0.50;;;;;;;;;;10455869;28;20497;-77
2022/09/10 05:25:33;;;;;;;0.90;0.40;;;;;;;;;;10484553;28;20055;-77
2022/09/10 05:30:43;;;;;;;0.60;0.50;;;;;;;;;;10467887;28;20033;-78
2022/09/10 05:35:55;;;;;;;1.35;0.63;;;;;;;;;;10485419;28;20098;-77
2022/09/10 05:41:05;;;;;;;0.85;0.50;;;;;;;;;;10467863;28;20112;-77
2022/09/10 05:46:10;;;;;;;0.55;0.20;;;;;;;;;;10485277;28;20040;-77
2022/09/10 05:51:16;;;;;;;0.82;0.60;;;;;;;;;;10488842;28;20329;-77
2022/09/10 05:56:24;;;;;;;1.98;0.98;;;;;;;;;;10486263;28;20453;-77
2022/09/10 06:01:28;;;;;;;0.85;0.50;;;;;;;;;;10465031;28;20037;-77
2022/09/10 06:06:31;;;;;;;;;;;;;;;;;;10482314;28;20075;-77
2022/09/10 06:11:48;;;;;;;0.40;0.35;;;;;;;;;;10482019;28;20167;-78
2022/09/10 06:16:59;;;;;;;0.45;0.32;;;;;;;;;;10485306;28;20433;-78
2022/09/10 06:22:04;;;;;;;4.13;0.77;;;;;;;;;;10484851;28;20048;-78
2022/09/10 06:27:10;;;;;;;0.68;0.63;;;;;;;;;;10484583;28;20047;-77
2022/09/10 06:32:19;;;;;;;2.08;0.68;;;;;;;;;;10469849;28;20060;-77
2022/09/10 06:37:27;;;;;;;3.92;1.13;;;;;;;;;;10479516;28;20064;-78
2022/09/10 06:42:33;;;;;;;1.90;0.60;;;;;;;;;;10480825;28;20040;-77
2022/09/10 06:47:36;;;;;;;1.00;0.52;;;;;;;;;;10448377;28;20040;-77
2022/09/10 06:53:02;;;;;;;1.70;0.80;;;;;;;;;;10479848;28;20064;-79
2022/09/10 06:58:14;;;;;;;3.15;0.77;;;;;;;;;;10483152;28;20045;-77
2022/09/10 07:03:23;;;;;;;1.73;1.00;;;;;;;;;;10487981;28;20509;-78
2022/09/10 07:08:34;;;;;;;2.72;1.10;;;;;;;;;;10489075;28;20033;-77
2022/09/10 07:13:44;;;;;;;2.67;1.10;;;;;;;;;;10493510;28;20043;-77
2022/09/10 07:18:50;;;;;;;1.33;0.70;;;;;;;;;;10477501;28;20110;-78
2022/09/10 07:23:53;;;;;;;;;;;;;;;;;;10522790;28;20041;-77
2022/09/10 07:28:59;;;;;;;3.83;0.77;;;;;;;;;;10529897;28;19924;-77
2022/09/10 07:34:05;;;;;;;1.90;0.75;;;;;;;;;;10525585;28;20082;-77
2022/09/10 07:39:09;;;;;;;0.52;0.40;;;;;;;;;;10510220;28;20040;-77
2022/09/10 07:44:17;;;;;;;1.17;0.50;;;;;;;;;;10493309;28;20121;-78
2022/09/10 07:49:35;;;;;;;2.47;0.73;;;;;;;;;;10468020;28;20036;-78
2022/09/10 07:54:42;;;;;;;0.77;0.38;;;;;;;;;;10446192;28;20056;-78
2022/09/10 07:59:54;;;;;;;3.75;0.68;;;;;;;;;;10481861;28;20043;-78
2022/09/10 08:05:10;;;;;;;2.83;0.73;;;;;;;;;;10480765;28;20410;-78
2022/09/10 08:10:14;;;;;;;0.95;0.60;;;;;;;;;;10482357;28;20036;-78
2022/09/10 08:15:22;;;;;;;1.70;0.60;;;;;;;;;;10483575;28;20036;-78
2022/09/10 08:20:30;;;;;;;1.73;0.90;;;;;;;;;;10483112;28;20048;-77
2022/09/10 08:25:35;;;;;;;1.45;0.70;;;;;;;;;;10485808;28;20063;-77
2022/09/10 08:30:58;;;;;;;0.77;0.52;;;;;;;;;;10490223;28;20121;-79
2022/09/10 08:36:05;;;;;;;;;;;;;;;;;;10488470;28;20464;-79
2022/09/10 08:41:13;;;;;;;0.65;0.63;;;;;;;;;;10474220;28;20397;-80
2022/09/10 08:46:21;;;;;;;1.27;0.82;;;;;;;;;;10468692;28;20527;-76
2022/09/10 08:51:28;;;;;;;0.70;0.63;;;;;;;;;;10489353;28;20068;-79
2022/09/10 08:56:37;;;;;;;1.35;0.82;;;;;;;;;;10479219;28;20052;-79
2022/09/10 09:01:49;;;;;;;1.20;1.00;;;;;;;;;;10490433;28;20047;-77
2022/09/10 09:06:56;;;;;;;2.40;0.93;;;;;;;;;;10491575;28;20040;-78
2022/09/10 09:12:04;;;;;;;0.77;0.70;;;;;;;;;;10469850;28;20048;-77
2022/09/10 09:17:35;;;;;;;1.67;0.80;;;;;;;;;;10469930;28;20037;-78
2022/09/10 09:22:48;;;;;;;1.10;0.70;;;;;;;;;;10486689;28;20064;-77
2022/09/10 09:27:53;;;;;;;0.75;0.45;;;;;;;;;;10485505;28;20043;-77
2022/09/10 09:33:09;;;;;;;0.77;0.75;;;;;;;;;;10487664;28;20098;-78
2022/09/10 09:38:21;;;;;;;2.60;0.73;;;;;;;;;;10483310;28;20036;-77
2022/09/10 09:44:01;;;;;;;1.10;0.60;;;;;;;;;;10488986;28;20059;-78
2022/09/10 09:54:53;;;;;;;1.08;0.60;;;;;;;;;;10470261;28;20063;-79
2022/09/10 10:06:00;;;;;;;1.10;0.60;;;;;;;;;;10599224;27;20451;-78
2022/09/10 10:11:03;;;;;;;0.57;0.50;;;;;;;;;;10605292;28;20043;-79
2022/09/10 10:16:14;;;;;;;1.92;0.38;;;;;;;;;;10601605;28;20049;-78
2022/09/10 10:21:21;;;;;;;2.08;1.05;;;;;;;;;;10603637;28;20422;-78
2022/09/10 10:26:29;;;;;;;0.93;0.50;;;;;;;;;;10601577;27;20055;-78
2022/09/10 10:31:37;;;;;;;2.60;0.80;;;;;;;;;;10603785;28;20043;-78
2022/09/10 10:36:47;;;;;;;1.13;0.70;;;;;;;;;;10601924;28;20107;-78
2022/09/10 10:41:57;;;;;;;0.52;0.52;;;;;;;;;;10601052;28;20180;-78
2022/09/10 10:47:10;;;;;;;1.00;1.00;;;;;;;;;;10598467;28;20127;-78
2022/09/10 10:52:24;;;;;;;1.05;1.00;;;;;;;;;;10596197;28;20035;-77
2022/09/10 10:57:31;;;;;;;2.10;0.70;;;;;;;;;;10602692;28;20039;-79
2022/09/10 11:02:38;;;;;;;2.67;0.80;;;;;;;;;;10598801;28;20400;-77
2022/09/10 11:07:44;;;;;;;0.95;0.70;;;;;;;;;;10597179;28;20047;-79
2022/09/10 11:12:50;;;;;;;2.25;1.40;;;;;;;;;;10591514;27;20039;-79
2022/09/10 11:17:57;;;;;;;1.95;0.88;;;;;;;;;;10573754;28;20035;-78
2022/09/10 11:23:05;;;;;;;0.35;0.35;;;;;;;;;;10576615;28;21922;-75
2022/09/10 11:28:12;;;;;;;1.85;0.60;;;;;;;;;;10571254;28;21606;-78
2022/09/10 11:33:20;;;;;;;1.20;0.85;;;;;;;;;;10572503;28;20039;-79
2022/09/10 11:38:31;;;;;;;1.60;1.10;;;;;;;;;;10566588;27;20484;-78
2022/09/10 11:43:37;;;;;;;0.65;0.65;;;;;;;;;;10573757;28;20036;-79
2022/09/10 11:54:37;;;;;;;2.15;0.60;;;;;;;;;;10564557;27;20036;-79
2022/09/10 11:59:54;;;;;;;1.20;1.10;;;;;;;;;;10556592;27;20032;-78
2022/09/10 12:05:00;;;;;;;1.88;0.80;;;;;;;;;;10560357;27;20495;-78
2022/09/10 12:10:13;;;;;;;1.27;0.68;;;;;;;;;;10575197;27;20051;-78
2022/09/10 12:15:18;;;;;;;0.70;0.70;;;;;;;;;;10571709;27;20036;-79
2022/09/10 12:20:23;;;;;;;0.70;0.70;;;;;;;;;;10564953;27;20104;-77
2022/09/10 12:25:28;;;;;;;2.60;0.82;;;;;;;;;;10560042;27;20035;-79
2022/09/10 12:31:01;;;;;;;1.50;1.10;;;;;;;;;;10568073;27;20131;-77
2022/09/10 12:36:04;;;;;;;1.48;0.80;;;;;;;;;;10571239;27;20069;-77
2022/09/10 12:41:13;;;;;;;1.63;0.85;;;;;;;;;;10565216;28;20046;-77
2022/09/10 12:46:17;;;;;;;0.93;0.70;;;;;;;;;;10566391;27;20043;-77
2022/09/10 12:51:26;;;;;;;1.13;0.90;;;;;;;;;;10560551;27;20090;-76
2022/09/10 12:57:02;;;;;;;0.50;0.50;;;;;;;;;;10561202;27;20067;-78
2022/09/10 13:02:18;;;;;;;0.70;0.47;;;;;;;;;;10553668;27;20128;-77
2022/09/10 13:07:27;;;;;;;0.50;0.30;;;;;;;;;;10560712;27;20040;-78
2022/09/10 13:12:36;;;;;;;1.88;0.70;;;;;;;;;;10574523;27;20040;-78
2022/09/10 13:17:41;;;;;;;0.70;0.55;;;;;;;;;;10555261;27;20400;-78
2022/09/10 13:23:04;;;;;;;1.60;0.60;;;;;;;;;;10570474;27;20050;-77
2022/09/10 13:28:26;;;;;;;1.65;0.88;;;;;;;;;;10575078;27;20116;-78
2022/09/10 13:33:32;;;;;;;4.32;0.65;;;;;;;;;;10565194;28;20032;-77
2022/09/10 13:38:52;;;;;;;0.50;0.50;;;;;;;;;;10565672;27;20283;-79
2022/09/10 13:44:10;;;;;;;3.15;0.55;;;;;;;;;;10552293;28;20131;-78
2022/09/10 13:49:21;;;;;;;0.60;0.50;;;;;;;;;;10566868;27;20197;-78
2022/09/10 13:54:30;;;;;;;1.88;0.40;;;;;;;;;;10567677;28;20408;-77
2022/09/10 13:59:33;;;;;;;1.55;0.40;;;;;;;;;;10559552;28;20135;-79
2022/09/10 14:04:35;;;;;;;;;;;;;;;;;;10566254;28;20040;-77
2022/09/10 14:09:42;;;;;;;1.27;0.70;;;;;;;;;;10547589;28;19927;-78
2022/09/10 14:14:47;;;;;;;1.73;0.73;;;;;;;;;;10554558;28;20533;-77
2022/09/10 14:19:53;;;;;;;1.67;0.88;;;;;;;;;;10563517;28;20082;-77
2022/09/10 14:25:00;;;;;;;0.60;0.55;;;;;;;;;;10555140;28;20396;-78
2022/09/10 14:30:17;;;;;;;0.65;0.50;;;;;;;;;;10574763;28;20044;-78
2022/09/10 14:35:41;;;;;;;0.40;0.40;;;;;;;;;;10556530;28;20391;-77
2022/09/10 14:40:46;;;;;;;0.98;0.60;;;;;;;;;;10549737;28;20048;-77
2022/09/10 14:45:49;;;;;;;1.20;0.65;;;;;;;;;;10574644;28;20105;-76
2022/09/10 14:50:52;;;;;;;;;;;;;;;;;;10571553;27;20044;-77
2022/09/10 14:55:56;;;;;;;0.73;0.40;;;;;;;;;;10579139;27;19920;-77
2022/09/10 15:00:59;;;;;;;2.00;0.65;;;;;;;;;;10578329;27;20047;-76
2022/09/10 15:06:02;;;;;;;1.92;0.90;;;;;;;;;;10608223;27;20051;-78
2022/09/10 15:11:16;;;;;;;0.40;0.40;;;;;;;;;;10612013;27;20038;-78
2022/09/10 15:16:18;;;;;;;2.95;0.65;;;;;;;;;;10615060;27;20837;-79
2022/09/10 15:21:21;;;;;;;2.17;0.57;;;;;;;;;;10611911;27;20045;-79
2022/09/10 15:26:27;;;;;;;0.57;0.20;;;;;;;;;;10612393;27;20086;-77
2022/09/10 15:31:34;;;;;;;1.55;0.70;;;;;;;;;;10591871;27;20043;-78
2022/09/10 15:36:39;;;;;;;1.77;0.50;;;;;;;;;;10615075;27;20027;-77
2022/09/10 15:41:47;;;;;;;1.88;0.85;;;;;;;;;;10613137;27;20051;-78
2022/09/10 15:46:50;;;;;;;2.00;0.60;;;;;;;;;;10609474;27;20065;-77
2022/09/10 15:51:53;;;;;;;0.85;0.40;;;;;;;;;;10613630;27;20099;-79
2022/09/10 15:56:59;;;;;;;0.75;0.40;;;;;;;;;;10612802;27;20149;-78
2022/09/10 16:02:05;;;;;;;0.68;0.28;;;;;;;;;;10610520;27;20027;-78
2022/09/10 16:07:08;;;;;;;0.85;0.43;;;;;;;;;;10613206;27;20031;-76
2022/09/10 16:12:16;;;;;;;0.95;0.75;;;;;;;;;;10612477;27;20142;-78
2022/09/10 16:17:19;;;;;;;1.45;0.70;;;;;;;;;;10612918;27;20084;-78
2022/09/10 16:22:32;;;;;;;1.25;0.60;;;;;;;;;;10609614;27;20527;-77
2022/09/10 16:27:36;;;;;;;3.07;1.10;;;;;;;;;;10613714;27;20039;-77
2022/09/10 16:32:45;;;;;;;2.65;0.70;;;;;;;;;;10609590;27;20074;-77
2022/09/10 16:37:49;;;;;;;0.50;0.50;;;;;;;;;;10608327;27;20292;-78
2022/09/10 16:42:54;;;;;;;1.42;0.63;;;;;;;;;;10611130;27;20114;-77
2022/09/10 16:47:57;;;;;;;2.70;1.08;;;;;;;;;;10604071;27;20071;-76
2022/09/10 16:53:06;;;;;;;2.53;1.15;;;;;;;;;;10610055;27;20047;-76
2022/09/10 16:58:15;;;;;;;1.05;0.75;;;;;;;;;;10610585;27;20491;-76
2022/09/10 17:03:18;;;;;;;1.83;0.70;;;;;;;;;;10585386;27;20094;-77
2022/09/10 17:08:20;;;;;;;2.00;1.00;;;;;;;;;;10607406;27;20039;-77
2022/09/10 17:13:25;;;;;;;2.63;1.20;;;;;;;;;;10599351;27;20429;-76
2022/09/10 17:18:28;;;;;;;3.83;1.77;;;;;;;;;;10602754;27;20095;-76
2022/09/10 17:23:31;;;;;;;3.13;1.30;;;;;;;;;;10607747;27;20426;-76
2022/09/10 17:28:36;;;;;;;6.70;2.25;;;;;;;;;;10608602;27;20127;-76
2022/09/10 17:33:40;;;;;;;5.25;2.20;;;;;;;;;;10599520;27;20035;-75
2022/09/10 17:38:43;;;;;;;2.67;1.45;;;;;;;;;;10610154;27;20046;-75
2022/09/10 17:43:48;;;;;;;1.88;1.48;;;;;;;;;;10603057;27;20067;-77
2022/09/10 17:48:52;;;;;;;3.92;1.80;;;;;;;;;;10604759;27;20039;-78
2022/09/10 17:53:55;;;;;;;3.33;1.88;;;;;;;;;;10606837;27;20045;-76
2022/09/10 17:59:00;;;;;;;7.97;2.75;;;;;;;;;;10609348;27;20134;-77
2022/09/10 18:04:04;;;;;;;4.43;1.98;;;;;;;;;;10601147;27;20107;-76
2022/09/10 18:09:07;;;;;;;2.92;1.50;;;;;;;;;;10607394;28;20035;-77
2022/09/10 18:14:17;;;;;;;5.07;1.88;;;;;;;;;;10607030;27;20484;-77
2022/09/10 18:19:21;;;;;;;2.60;1.30;;;;;;;;;;10606374;27;20089;-77
2022/09/10 18:24:24;;;;;;;6.13;2.08;;;;;;;;;;10607322;27;20035;-77
2022/09/10 18:29:28;;;;;;;4.03;1.67;;;;;;;;;;10612154;27;20104;-79
2022/09/10 18:34:31;;;;;;;8.98;3.53;;;;;;;;;;10612145;27;20027;-78
2022/09/10 18:39:34;;;;;;;5.13;1.63;;;;;;;;;;10609991;27;20521;-77
2022/09/10 18:44:39;;;;;;;2.58;1.52;;;;;;;;;;10611764;27;20046;-77
2022/09/10 18:49:43;;;;;;;5.75;1.98;;;;;;;;;;10606100;27;20174;-77
2022/09/10 18:54:46;;;;;;;5.45;1.40;;;;;;;;;;10606691;27;20070;-76
2022/09/10 18:59:52;;;;;;;2.80;1.80;;;;;;;;;;10619261;27;20039;-77
2022/09/10 19:05:01;;;;;;;6.47;3.33;;;;;;;;;;10610433;27;20041;-77
2022/09/10 19:10:20;;;;;;;;;;;;;;;;;;10592772;27;20035;-77
2022/09/10 19:15:26;;;;;;;1.20;0.93;;;;;;;;;;10607662;27;20448;-78
2022/09/10 19:20:30;;;;;;;6.28;2.45;;;;;;;;;;10591772;27;20074;-78
2022/09/10 19:25:33;;;;;;;4.25;1.55;;;;;;;;;;10609100;27;20032;-77
2022/09/10 19:30:38;;;;;;;3.22;1.13;;;;;;;;;;10609414;27;20099;-76
2022/09/10 19:35:45;;;;;;;2.78;1.40;;;;;;;;;;10605818;27;20376;-75
2022/09/10 19:41:01;;;;;;;5.07;1.60;;;;;;;;;;10615089;27;20031;-78
2022/09/10 19:46:06;;;;;;;4.57;1.65;;;;;;;;;;10607398;27;20152;-76
2022/09/10 19:51:10;;;;;;;3.60;1.88;;;;;;;;;;10592876;27;20495;-76
2022/09/10 19:56:15;;;;;;;3.53;1.33;;;;;;;;;;10610216;27;20395;-77
2022/09/10 20:01:24;;;;;;;0.32;0.25;;;;;;;;;;10584937;27;20043;-76
2022/09/10 20:06:28;;;;;;;2.65;1.42;;;;;;;;;;10600779;27;20035;-76
2022/09/10 20:11:33;;;;;;;2.47;1.50;;;;;;;;;;10610088;27;20039;-77
2022/09/10 20:16:39;;;;;;;4.00;1.40;;;;;;;;;;10610857;27;20035;-78
2022/09/10 20:21:42;;;;;;;4.22;0.80;;;;;;;;;;10605186;27;20119;-78
2022/09/10 20:26:45;;;;;;;0.80;0.70;;;;;;;;;;10611639;27;20035;-79
2022/09/10 20:31:51;;;;;;;0.93;0.88;;;;;;;;;;10603113;27;20039;-77
2022/09/10 20:36:54;;;;;;;1.10;1.00;;;;;;;;;;10612549;27;20051;-77
2022/09/10 20:41:57;;;;;;;6.37;1.60;;;;;;;;;;10609586;27;20039;-77
2022/09/10 20:47:02;;;;;;;4.37;1.47;;;;;;;;;;10604681;27;20455;-76
2022/09/10 20:52:06;;;;;;;8.77;3.00;;;;;;;;;;10605198;27;20039;-76
2022/09/10 20:57:10;;;;;;;5.70;2.30;;;;;;;;;;10591882;27;20042;-77
2022/09/10 21:02:14;;;;;;;1.35;1.02;;;;;;;;;;10606961;27;20039;-76
2022/09/10 21:07:17;;;;;;;2.55;1.50;;;;;;;;;;10608790;27;20037;-77
2022/09/10 21:12:20;;;;;;;15.07;4.30;;;;;;;;;;10608584;27;20057;-77
2022/09/10 21:17:24;;;;;;;4.50;1.75;;;;;;;;;;10608801;27;20039;-77
2022/09/10 21:22:26;;;;;;;3.60;1.23;;;;;;;;;;10608142;27;20126;-77
2022/09/10 21:27:29;;;;;;;2.22;1.50;;;;;;;;;;10610565;27;20042;-77
2022/09/10 21:32:34;;;;;;;3.38;1.50;;;;;;;;;;10605837;27;20181;-77
2022/09/10 21:37:37;;;;;;;4.47;1.55;;;;;;;;;;10607290;27;20048;-77
2022/09/10 21:42:39;;;;;;;2.83;1.52;;;;;;;;;;10612005;27;20149;-76
2022/09/10 21:47:43;;;;;;;1.30;0.70;;;;;;;;;;10609969;27;20023;-76
2022/09/10 21:52:46;;;;;;;5.18;1.48;;;;;;;;;;10605306;27;20040;-77
2022/09/10 21:58:00;;;;;;;4.32;1.70;;;;;;;;;;10601509;27;20086;-76
2022/09/10 22:03:03;;;;;;;;;;;;;;;;;;10607784;27;20114;-76
2022/09/10 22:08:07;;;;;;;0.90;0.85;;;;;;;;;;10609404;27;20014;-75
2022/09/10 22:13:10;;;;;;;2.88;1.20;;;;;;;;;;10603606;27;20137;-75
2022/09/10 22:18:14;;;;;;;2.90;0.63;;;;;;;;;;10603180;27;20039;-76
2022/09/10 22:23:18;;;;;;;0.80;0.77;;;;;;;;;;10604855;27;20130;-75
2022/09/10 22:28:21;;;;;;;1.80;1.25;;;;;;;;;;10609414;27;20066;-75
2022/09/10 22:33:24;;;;;;;3.13;1.20;;;;;;;;;;10606820;28;20070;-75
2022/09/10 22:38:31;;;;;;;0.82;0.73;;;;;;;;;;10607941;27;20031;-75
2022/09/10 22:43:34;;;;;;;2.88;1.20;;;;;;;;;;10604464;27;20037;-76
2022/09/10 22:48:38;;;;;;;2.10;1.00;;;;;;;;;;10608193;27;20046;-75
2022/09/10 22:53:42;;;;;;;4.22;1.50;;;;;;;;;;10604631;28;20572;-75
2022/09/10 22:58:45;;;;;;;3.13;1.77;;;;;;;;;;10603631;28;20031;-75
2022/09/10 23:03:49;;;;;;;4.35;1.52;;;;;;;;;;10604014;27;20070;-76
2022/09/10 23:08:53;;;;;;;2.60;1.27;;;;;;;;;;10609418;27;20127;-76
2022/09/10 23:13:57;;;;;;;1.33;0.85;;;;;;;;;;10606821;27;20059;-76
2022/09/10 23:19:02;;;;;;;2.38;1.42;;;;;;;;;;10616284;27;20055;-76
2022/09/10 23:24:07;;;;;;;1.67;1.02;;;;;;;;;;10619181;27;20047;-75
2022/09/10 23:29:09;;;;;;;1.67;0.68;;;;;;;;;;10614616;27;20046;-75
2022/09/10 23:34:18;;;;;;;4.32;1.20;;;;;;;;;;10612792;27;20495;-75
2022/09/10 23:39:23;;;;;;;3.35;1.23;;;;;;;;;;10612603;27;20145;-75
2022/09/10 23:44:25;;;;;;;1.52;0.98;;;;;;;;;;10590007;27;20400;-76
2022/09/10 23:49:28;;;;;;;3.67;1.30;;;;;;;;;;10590851;27;20122;-77
2022/09/10 23:54:34;;;;;;;1.50;1.08;;;;;;;;;;10610447;27;20046;-74
2022/09/10 23:59:36;;;;;;;2.25;0.93;;;;;;;;;;10591903;27;20035;-75
